sensor_id;sensor_type;location;lat;lon;timestamp;P1;durP1;ratioP1;P2;durP2;ratioP2
25437;SDS011;13364;49.084;9.978;2023-01-31T00:01:38;23.45;;;10.07;;
25437;SDS011;13364;49.084;9.978;2023-01-31T00:07:47;22.42;;;10.07;;
25437;SDS011;13364;49.084;9.978;2023-01-31T00:10:14;20.80;;;10.82;;
25437;SDS011;13364;49.084;9.978;2023-01-31T00:12:41;19.75;;;9.80;;
25437;SDS011;13364;49.084;9.978;2023-01-31T00:15:09;16.13;;;9.88;;
25437;SDS011;13364;49.084;9.978;2023-01-31T00:20:05;20.02;;;9.75;;
25437;SDS011;13364;49.084;9.978;2023-01-31T00:22:33;20.17;;;11.00;;
25437;SDS011;13364;49.084;9.978;2023-01-31T00:25:01;22.30;;;11.07;;
25437;SDS011;13364;49.084;9.978;2023-01-31T00:27:28;22.13;;;10.68;;
25437;SDS011;13364;49.084;9.978;2023-01-31T00:29:55;18.42;;;9.05;;
25437;SDS011;13364;49.084;9.978;2023-01-31T00:32:22;20.95;;;10.82;;
25437;SDS011;13364;49.084;9.978;2023-01-31T00:34:52;22.42;;;9.48;;
25437;SDS011;13364;49.084;9.978;2023-01-31T00:37:20;25.50;;;10.88;;
25437;SDS011;13364;49.084;9.978;2023-01-31T00:39:47;21.60;;;10.05;;
25437;SDS011;13364;49.084;9.978;2023-01-31T00:42:15;17.38;;;8.82;;
25437;SDS011;13364;49.084;9.978;2023-01-31T00:44:42;23.50;;;9.65;;
25437;SDS011;13364;49.084;9.978;2023-01-31T00:47:09;22.52;;;10.63;;
25437;SDS011;13364;49.084;9.978;2023-01-31T00:49:36;21.80;;;8.48;;
25437;SDS011;13364;49.084;9.978;2023-01-31T00:52:03;29.30;;;10.05;;
25437;SDS011;13364;49.084;9.978;2023-01-31T00:54:30;19.73;;;9.18;;
25437;SDS011;13364;49.084;9.978;2023-01-31T01:00:32;20.75;;;9.98;;
25437;SDS011;13364;49.084;9.978;2023-01-31T01:03:00;25.65;;;10.45;;
25437;SDS011;13364;49.084;9.978;2023-01-31T01:05:27;19.80;;;9.60;;
25437;SDS011;13364;49.084;9.978;2023-01-31T01:07:54;20.70;;;9.07;;
25437;SDS011;13364;49.084;9.978;2023-01-31T01:10:22;20.55;;;9.60;;
25437;SDS011;13364;49.084;9.978;2023-01-31T01:12:49;22.45;;;10.07;;
25437;SDS011;13364;49.084;9.978;2023-01-31T01:15:16;27.40;;;10.07;;
25437;SDS011;13364;49.084;9.978;2023-01-31T01:17:43;8.23;;;5.30;;
25437;SDS011;13364;49.084;9.978;2023-01-31T01:20:11;25.58;;;10.23;;
25437;SDS011;13364;49.084;9.978;2023-01-31T01:22:38;20.92;;;10.10;;
25437;SDS011;13364;49.084;9.978;2023-01-31T01:25:05;20.38;;;9.88;;
25437;SDS011;13364;49.084;9.978;2023-01-31T01:27:34;17.05;;;7.95;;
25437;SDS011;13364;49.084;9.978;2023-01-31T01:30:02;20.67;;;9.98;;
25437;SDS011;13364;49.084;9.978;2023-01-31T01:32:30;19.03;;;9.03;;
25437;SDS011;13364;49.084;9.978;2023-01-31T01:34:57;19.88;;;9.93;;
25437;SDS011;13364;49.084;9.978;2023-01-31T01:37:24;23.38;;;9.52;;
25437;SDS011;13364;49.084;9.978;2023-01-31T01:39:51;15.55;;;7.63;;
25437;SDS011;13364;49.084;9.978;2023-01-31T01:42:20;22.58;;;9.77;;
25437;SDS011;13364;49.084;9.978;2023-01-31T01:50:30;13.20;;;6.65;;
25437;SDS011;13364;49.084;9.978;2023-01-31T01:53:05;18.52;;;9.02;;
25437;SDS011;13364;49.084;9.978;2023-01-31T01:55:40;17.75;;;8.77;;
25437;SDS011;13364;49.084;9.978;2023-01-31T01:58:14;15.02;;;6.45;;
25437;SDS011;13364;49.084;9.978;2023-01-31T02:01:05;15.45;;;8.18;;
25437;SDS011;13364;49.084;9.978;2023-01-31T02:03:33;14.25;;;6.95;;
25437;SDS011;13364;49.084;9.978;2023-01-31T02:06:02;9.82;;;4.88;;
25437;SDS011;13364;49.084;9.978;2023-01-31T02:08:32;9.27;;;4.70;;
25437;SDS011;13364;49.084;9.978;2023-01-31T02:13:37;21.45;;;8.85;;
25437;SDS011;13364;49.084;9.978;2023-01-31T02:16:12;15.43;;;7.93;;
25437;SDS011;13364;49.084;9.978;2023-01-31T02:18:40;17.52;;;8.63;;
25437;SDS011;13364;49.084;9.978;2023-01-31T02:23:52;14.75;;;7.75;;
25437;SDS011;13364;49.084;9.978;2023-01-31T02:41:11;16.27;;;7.45;;
25437;SDS011;13364;49.084;9.978;2023-01-31T02:43:53;22.00;;;8.65;;
25437;SDS011;13364;49.084;9.978;2023-01-31T02:49:33;20.80;;;9.73;;
25437;SDS011;13364;49.084;9.978;2023-01-31T02:52:17;18.83;;;9.13;;
25437;SDS011;13364;49.084;9.978;2023-01-31T02:57:52;20.95;;;8.00;;
25437;SDS011;13364;49.084;9.978;2023-01-31T03:00:22;23.40;;;9.50;;
25437;SDS011;13364;49.084;9.978;2023-01-31T03:02:50;21.73;;;8.70;;
25437;SDS011;13364;49.084;9.978;2023-01-31T03:05:17;20.80;;;8.60;;
25437;SDS011;13364;49.084;9.978;2023-01-31T03:07:46;18.88;;;9.13;;
25437;SDS011;13364;49.084;9.978;2023-01-31T03:21:33;10.38;;;5.75;;
25437;SDS011;13364;49.084;9.978;2023-01-31T03:24:05;17.55;;;8.63;;
25437;SDS011;13364;49.084;9.978;2023-01-31T03:29:20;23.50;;;8.18;;
25437;SDS011;13364;49.084;9.978;2023-01-31T03:31:55;20.33;;;9.00;;
25437;SDS011;13364;49.084;9.978;2023-01-31T03:34:25;10.65;;;5.55;;
25437;SDS011;13364;49.084;9.978;2023-01-31T03:42:18;18.88;;;9.00;;
25437;SDS011;13364;49.084;9.978;2023-01-31T03:45:08;18.75;;;8.60;;
25437;SDS011;13364;49.084;9.978;2023-01-31T03:47:45;17.58;;;8.57;;
25437;SDS011;13364;49.084;9.978;2023-01-31T03:50:16;28.05;;;9.15;;
25437;SDS011;13364;49.084;9.978;2023-01-31T03:53:06;24.85;;;8.85;;
25437;SDS011;13364;49.084;9.978;2023-01-31T03:58:49;10.68;;;5.70;;
25437;SDS011;13364;49.084;9.978;2023-01-31T04:01:22;13.88;;;7.10;;
25437;SDS011;13364;49.084;9.978;2023-01-31T04:03:53;19.30;;;8.82;;
25437;SDS011;13364;49.084;9.978;2023-01-31T04:06:24;17.73;;;8.35;;
25437;SDS011;13364;49.084;9.978;2023-01-31T04:08:53;15.38;;;8.02;;
25437;SDS011;13364;49.084;9.978;2023-01-31T04:11:20;16.23;;;7.75;;
25437;SDS011;13364;49.084;9.978;2023-01-31T04:13:51;19.33;;;6.22;;
25437;SDS011;13364;49.084;9.978;2023-01-31T04:16:18;21.25;;;8.93;;
25437;SDS011;13364;49.084;9.978;2023-01-31T04:18:45;22.83;;;8.10;;
25437;SDS011;13364;49.084;9.978;2023-01-31T04:21:13;15.18;;;6.10;;
25437;SDS011;13364;49.084;9.978;2023-01-31T04:23:40;19.02;;;8.35;;
25437;SDS011;13364;49.084;9.978;2023-01-31T04:26:07;20.10;;;9.02;;
25437;SDS011;13364;49.084;9.978;2023-01-31T04:28:34;21.95;;;9.35;;
25437;SDS011;13364;49.084;9.978;2023-01-31T04:31:01;15.60;;;7.10;;
25437;SDS011;13364;49.084;9.978;2023-01-31T04:33:29;23.55;;;8.65;;
25437;SDS011;13364;49.084;9.978;2023-01-31T04:35:56;19.00;;;8.90;;
25437;SDS011;13364;49.084;9.978;2023-01-31T04:38:23;21.90;;;9.25;;
25437;SDS011;13364;49.084;9.978;2023-01-31T04:40:50;18.17;;;7.82;;
25437;SDS011;13364;49.084;9.978;2023-01-31T04:43:17;16.98;;;7.53;;
25437;SDS011;13364;49.084;9.978;2023-01-31T04:45:44;16.63;;;7.57;;
25437;SDS011;13364;49.084;9.978;2023-01-31T04:48:11;19.13;;;7.88;;
25437;SDS011;13364;49.084;9.978;2023-01-31T04:50:38;18.33;;;8.77;;
25437;SDS011;13364;49.084;9.978;2023-01-31T04:53:05;24.58;;;8.45;;
25437;SDS011;13364;49.084;9.978;2023-01-31T04:55:34;20.60;;;8.55;;
25437;SDS011;13364;49.084;9.978;2023-01-31T04:58:02;21.15;;;8.75;;
25437;SDS011;13364;49.084;9.978;2023-01-31T05:00:32;20.00;;;8.45;;
25437;SDS011;13364;49.084;9.978;2023-01-31T05:02:59;19.42;;;9.23;;
25437;SDS011;13364;49.084;9.978;2023-01-31T05:05:33;16.05;;;6.72;;
25437;SDS011;13364;49.084;9.978;2023-01-31T05:08:02;25.00;;;9.03;;
25437;SDS011;13364;49.084;9.978;2023-01-31T05:10:29;19.33;;;8.27;;
25437;SDS011;13364;49.084;9.978;2023-01-31T05:12:56;18.30;;;8.57;;
25437;SDS011;13364;49.084;9.978;2023-01-31T05:15:23;21.00;;;8.65;;
25437;SDS011;13364;49.084;9.978;2023-01-31T05:17:51;16.20;;;7.80;;
25437;SDS011;13364;49.084;9.978;2023-01-31T05:20:18;20.23;;;8.60;;
25437;SDS011;13364;49.084;9.978;2023-01-31T05:22:46;16.77;;;8.52;;
25437;SDS011;13364;49.084;9.978;2023-01-31T05:25:14;19.73;;;9.05;;
25437;SDS011;13364;49.084;9.978;2023-01-31T05:27:41;18.63;;;8.63;;
25437;SDS011;13364;49.084;9.978;2023-01-31T05:30:10;18.10;;;4.20;;
25437;SDS011;13364;49.084;9.978;2023-01-31T05:32:38;25.00;;;9.65;;
25437;SDS011;13364;49.084;9.978;2023-01-31T05:35:05;19.30;;;9.07;;
25437;SDS011;13364;49.084;9.978;2023-01-31T05:37:32;14.73;;;7.10;;
25437;SDS011;13364;49.084;9.978;2023-01-31T05:39:59;23.52;;;9.20;;
25437;SDS011;13364;49.084;9.978;2023-01-31T05:42:26;21.83;;;8.95;;
25437;SDS011;13364;49.084;9.978;2023-01-31T05:44:53;22.05;;;9.15;;
25437;SDS011;13364;49.084;9.978;2023-01-31T05:47:20;21.08;;;8.32;;
25437;SDS011;13364;49.084;9.978;2023-01-31T05:49:48;20.53;;;8.43;;
25437;SDS011;13364;49.084;9.978;2023-01-31T05:52:15;24.10;;;9.02;;
25437;SDS011;13364;49.084;9.978;2023-01-31T05:54:42;19.10;;;8.70;;
25437;SDS011;13364;49.084;9.978;2023-01-31T05:57:09;19.55;;;8.43;;
25437;SDS011;13364;49.084;9.978;2023-01-31T05:59:36;19.67;;;8.18;;
25437;SDS011;13364;49.084;9.978;2023-01-31T06:02:03;21.95;;;8.05;;
25437;SDS011;13364;49.084;9.978;2023-01-31T06:04:31;12.10;;;7.40;;
25437;SDS011;13364;49.084;9.978;2023-01-31T06:07:00;23.52;;;8.75;;
25437;SDS011;13364;49.084;9.978;2023-01-31T06:09:27;21.42;;;9.18;;
25437;SDS011;13364;49.084;9.978;2023-01-31T06:11:54;18.08;;;8.15;;
25437;SDS011;13364;49.084;9.978;2023-01-31T06:14:21;15.48;;;8.35;;
25437;SDS011;13364;49.084;9.978;2023-01-31T06:16:48;19.60;;;7.47;;
25437;SDS011;13364;49.084;9.978;2023-01-31T06:19:15;19.77;;;9.25;;
25437;SDS011;13364;49.084;9.978;2023-01-31T06:21:42;14.27;;;7.68;;
25437;SDS011;13364;49.084;9.978;2023-01-31T06:24:09;22.75;;;8.88;;
25437;SDS011;13364;49.084;9.978;2023-01-31T06:26:36;19.73;;;9.05;;
25437;SDS011;13364;49.084;9.978;2023-01-31T06:29:03;23.65;;;10.63;;
25437;SDS011;13364;49.084;9.978;2023-01-31T06:31:30;25.27;;;11.23;;
25437;SDS011;13364;49.084;9.978;2023-01-31T06:33:58;16.98;;;9.75;;
25437;SDS011;13364;49.084;9.978;2023-01-31T06:36:27;15.23;;;6.90;;
25437;SDS011;13364;49.084;9.978;2023-01-31T06:38:56;23.08;;;10.93;;
25437;SDS011;13364;49.084;9.978;2023-01-31T06:41:23;22.30;;;11.00;;
25437;SDS011;13364;49.084;9.978;2023-01-31T06:43:50;24.90;;;10.82;;
25437;SDS011;13364;49.084;9.978;2023-01-31T06:46:17;25.40;;;10.98;;
25437;SDS011;13364;49.084;9.978;2023-01-31T06:48:44;13.75;;;4.78;;
25437;SDS011;13364;49.084;9.978;2023-01-31T06:51:16;26.63;;;9.05;;
25437;SDS011;13364;49.084;9.978;2023-01-31T06:53:43;23.05;;;10.52;;
25437;SDS011;13364;49.084;9.978;2023-01-31T06:56:10;25.15;;;11.93;;
25437;SDS011;13364;49.084;9.978;2023-01-31T06:58:37;26.40;;;11.23;;
25437;SDS011;13364;49.084;9.978;2023-01-31T07:01:09;36.83;;;12.30;;
25437;SDS011;13364;49.084;9.978;2023-01-31T07:03:38;29.30;;;12.40;;
25437;SDS011;13364;49.084;9.978;2023-01-31T07:06:06;30.85;;;13.07;;
25437;SDS011;13364;49.084;9.978;2023-01-31T07:08:34;24.60;;;11.48;;
25437;SDS011;13364;49.084;9.978;2023-01-31T07:11:02;25.52;;;11.13;;
25437;SDS011;13364;49.084;9.978;2023-01-31T07:13:30;25.58;;;12.07;;
25437;SDS011;13364;49.084;9.978;2023-01-31T07:15:57;27.10;;;12.75;;
25437;SDS011;13364;49.084;9.978;2023-01-31T07:18:24;26.55;;;12.43;;
25437;SDS011;13364;49.084;9.978;2023-01-31T07:20:51;25.20;;;13.07;;
25437;SDS011;13364;49.084;9.978;2023-01-31T07:23:19;26.75;;;12.38;;
25437;SDS011;13364;49.084;9.978;2023-01-31T07:25:46;24.13;;;11.15;;
25437;SDS011;13364;49.084;9.978;2023-01-31T07:28:13;24.58;;;13.05;;
25437;SDS011;13364;49.084;9.978;2023-01-31T07:30:40;25.73;;;12.63;;
25437;SDS011;13364;49.084;9.978;2023-01-31T07:33:12;31.98;;;12.68;;
25437;SDS011;13364;49.084;9.978;2023-01-31T07:35:40;31.05;;;13.10;;
25437;SDS011;13364;49.084;9.978;2023-01-31T07:40:36;34.20;;;14.90;;
25437;SDS011;13364;49.084;9.978;2023-01-31T07:43:05;33.63;;;14.18;;
25437;SDS011;13364;49.084;9.978;2023-01-31T07:45:32;35.88;;;14.55;;
25437;SDS011;13364;49.084;9.978;2023-01-31T07:48:00;28.38;;;14.63;;
25437;SDS011;13364;49.084;9.978;2023-01-31T07:50:27;28.50;;;13.10;;
25437;SDS011;13364;49.084;9.978;2023-01-31T07:52:55;27.85;;;14.57;;
25437;SDS011;13364;49.084;9.978;2023-01-31T07:55:24;30.60;;;11.07;;
25437;SDS011;13364;49.084;9.978;2023-01-31T07:57:51;29.30;;;13.30;;
25437;SDS011;13364;49.084;9.978;2023-01-31T08:00:18;37.25;;;15.07;;
25437;SDS011;13364;49.084;9.978;2023-01-31T08:03:04;32.58;;;14.57;;
25437;SDS011;13364;49.084;9.978;2023-01-31T08:05:49;34.47;;;15.25;;
25437;SDS011;13364;49.084;9.978;2023-01-31T08:08:16;29.15;;;14.95;;
25437;SDS011;13364;49.084;9.978;2023-01-31T08:10:43;31.77;;;14.88;;
25437;SDS011;13364;49.084;9.978;2023-01-31T08:13:12;29.15;;;13.18;;
25437;SDS011;13364;49.084;9.978;2023-01-31T08:15:39;30.42;;;14.40;;
25437;SDS011;13364;49.084;9.978;2023-01-31T08:18:06;26.92;;;9.93;;
25437;SDS011;13364;49.084;9.978;2023-01-31T08:20:33;32.58;;;14.65;;
25437;SDS011;13364;49.084;9.978;2023-01-31T08:23:03;29.67;;;13.38;;
25437;SDS011;13364;49.084;9.978;2023-01-31T08:25:35;29.25;;;13.18;;
25437;SDS011;13364;49.084;9.978;2023-01-31T08:28:02;26.75;;;12.98;;
25437;SDS011;13364;49.084;9.978;2023-01-31T08:30:30;30.73;;;13.20;;
25437;SDS011;13364;49.084;9.978;2023-01-31T08:32:57;26.60;;;12.23;;
25437;SDS011;13364;49.084;9.978;2023-01-31T08:35:25;25.70;;;12.35;;
25437;SDS011;13364;49.084;9.978;2023-01-31T08:37:53;28.13;;;11.05;;
25437;SDS011;13364;49.084;9.978;2023-01-31T08:40:32;19.48;;;8.80;;
25437;SDS011;13364;49.084;9.978;2023-01-31T08:42:59;20.83;;;9.98;;
25437;SDS011;13364;49.084;9.978;2023-01-31T08:45:27;19.60;;;9.77;;
25437;SDS011;13364;49.084;9.978;2023-01-31T08:47:56;17.63;;;8.98;;
25437;SDS011;13364;49.084;9.978;2023-01-31T08:50:26;22.52;;;9.13;;
25437;SDS011;13364;49.084;9.978;2023-01-31T08:52:54;21.63;;;8.93;;
25437;SDS011;13364;49.084;9.978;2023-01-31T08:55:23;21.45;;;9.30;;
25437;SDS011;13364;49.084;9.978;2023-01-31T08:57:51;15.43;;;7.47;;
25437;SDS011;13364;49.084;9.978;2023-01-31T09:00:25;17.13;;;8.88;;
25437;SDS011;13364;49.084;9.978;2023-01-31T09:02:53;13.65;;;6.95;;
25437;SDS011;13364;49.084;9.978;2023-01-31T09:05:21;13.88;;;8.25;;
25437;SDS011;13364;49.084;9.978;2023-01-31T09:07:50;13.07;;;7.95;;
25437;SDS011;13364;49.084;9.978;2023-01-31T09:10:17;15.30;;;7.45;;
25437;SDS011;13364;49.084;9.978;2023-01-31T09:12:45;22.55;;;7.95;;
25437;SDS011;13364;49.084;9.978;2023-01-31T09:15:13;14.57;;;6.75;;
25437;SDS011;13364;49.084;9.978;2023-01-31T09:17:40;21.63;;;8.27;;
25437;SDS011;13364;49.084;9.978;2023-01-31T09:20:09;17.75;;;7.93;;
25437;SDS011;13364;49.084;9.978;2023-01-31T09:22:36;16.33;;;6.80;;
25437;SDS011;13364;49.084;9.978;2023-01-31T09:25:05;17.65;;;7.15;;
25437;SDS011;13364;49.084;9.978;2023-01-31T09:27:32;18.67;;;6.65;;
25437;SDS011;13364;49.084;9.978;2023-01-31T09:30:02;12.00;;;6.35;;
25437;SDS011;13364;49.084;9.978;2023-01-31T09:32:33;13.73;;;6.88;;
25437;SDS011;13364;49.084;9.978;2023-01-31T09:35:00;18.45;;;7.45;;
25437;SDS011;13364;49.084;9.978;2023-01-31T09:37:28;17.75;;;6.65;;
25437;SDS011;13364;49.084;9.978;2023-01-31T09:39:59;21.60;;;7.68;;
25437;SDS011;13364;49.084;9.978;2023-01-31T09:42:44;13.27;;;6.55;;
25437;SDS011;13364;49.084;9.978;2023-01-31T09:45:14;14.82;;;6.75;;
25437;SDS011;13364;49.084;9.978;2023-01-31T09:47:53;17.45;;;7.05;;
25437;SDS011;13364;49.084;9.978;2023-01-31T09:52:52;20.98;;;7.15;;
25437;SDS011;13364;49.084;9.978;2023-01-31T09:55:21;16.05;;;6.75;;
25437;SDS011;13364;49.084;9.978;2023-01-31T10:07:15;15.68;;;6.45;;
25437;SDS011;13364;49.084;9.978;2023-01-31T10:12:48;17.30;;;6.78;;
25437;SDS011;13364;49.084;9.978;2023-01-31T10:15:42;16.98;;;7.43;;
25437;SDS011;13364;49.084;9.978;2023-01-31T10:18:32;15.02;;;7.13;;
25437;SDS011;13364;49.084;9.978;2023-01-31T10:21:05;18.65;;;7.20;;
25437;SDS011;13364;49.084;9.978;2023-01-31T10:26:28;14.63;;;6.43;;
25437;SDS011;13364;49.084;9.978;2023-01-31T10:28:59;19.10;;;7.07;;
25437;SDS011;13364;49.084;9.978;2023-01-31T10:31:51;15.77;;;6.53;;
25437;SDS011;13364;49.084;9.978;2023-01-31T10:34:25;14.77;;;4.60;;
25437;SDS011;13364;49.084;9.978;2023-01-31T10:37:09;14.50;;;6.85;;
25437;SDS011;13364;49.084;9.978;2023-01-31T10:40:00;12.52;;;6.50;;
25437;SDS011;13364;49.084;9.978;2023-01-31T10:42:35;10.13;;;4.85;;
25437;SDS011;13364;49.084;9.978;2023-01-31T10:45:19;16.20;;;6.88;;
25437;SDS011;13364;49.084;9.978;2023-01-31T10:47:50;22.13;;;6.32;;
25437;SDS011;13364;49.084;9.978;2023-01-31T10:58:58;14.30;;;5.55;;
25437;SDS011;13364;49.084;9.978;2023-01-31T11:01:27;9.63;;;4.85;;
25437;SDS011;13364;49.084;9.978;2023-01-31T11:03:55;16.42;;;5.95;;
25437;SDS011;13364;49.084;9.978;2023-01-31T11:06:23;15.63;;;6.40;;
25437;SDS011;13364;49.084;9.978;2023-01-31T11:08:58;17.15;;;6.60;;
25437;SDS011;13364;49.084;9.978;2023-01-31T11:11:27;14.38;;;5.60;;
25437;SDS011;13364;49.084;9.978;2023-01-31T11:16:33;17.42;;;5.93;;
25437;SDS011;13364;49.084;9.978;2023-01-31T11:19:23;15.77;;;5.68;;
25437;SDS011;13364;49.084;9.978;2023-01-31T11:21:58;7.97;;;3.83;;
25437;SDS011;13364;49.084;9.978;2023-01-31T11:24:26;14.30;;;6.30;;
25437;SDS011;13364;49.084;9.978;2023-01-31T11:27:03;16.77;;;5.68;;
25437;SDS011;13364;49.084;9.978;2023-01-31T11:29:37;9.95;;;4.70;;
25437;SDS011;13364;49.084;9.978;2023-01-31T11:32:17;12.98;;;5.38;;
25437;SDS011;13364;49.084;9.978;2023-01-31T11:34:56;7.13;;;3.95;;
25437;SDS011;13364;49.084;9.978;2023-01-31T11:37:31;13.00;;;4.82;;
25437;SDS011;13364;49.084;9.978;2023-01-31T11:40:02;17.80;;;6.22;;
25437;SDS011;13364;49.084;9.978;2023-01-31T11:42:56;11.90;;;4.38;;
25437;SDS011;13364;49.084;9.978;2023-01-31T11:45:25;13.77;;;5.07;;
25437;SDS011;13364;49.084;9.978;2023-01-31T11:47:56;13.20;;;5.03;;
25437;SDS011;13364;49.084;9.978;2023-01-31T11:52:58;11.98;;;3.15;;
25437;SDS011;13364;49.084;9.978;2023-01-31T11:55:37;10.20;;;4.38;;
25437;SDS011;13364;49.084;9.978;2023-01-31T11:58:19;13.90;;;4.93;;
25437;SDS011;13364;49.084;9.978;2023-01-31T12:03:39;15.35;;;5.18;;
25437;SDS011;13364;49.084;9.978;2023-01-31T12:06:28;6.65;;;2.83;;
25437;SDS011;13364;49.084;9.978;2023-01-31T12:09:02;15.13;;;4.28;;
25437;SDS011;13364;49.084;9.978;2023-01-31T12:11:54;12.77;;;5.45;;
25437;SDS011;13364;49.084;9.978;2023-01-31T12:14:22;14.52;;;5.18;;
25437;SDS011;13364;49.084;9.978;2023-01-31T12:16:52;10.52;;;5.22;;
25437;SDS011;13364;49.084;9.978;2023-01-31T12:19:34;16.17;;;5.63;;
25437;SDS011;13364;49.084;9.978;2023-01-31T12:22:25;10.27;;;3.58;;
25437;SDS011;13364;49.084;9.978;2023-01-31T12:25:03;15.05;;;5.25;;
25437;SDS011;13364;49.084;9.978;2023-01-31T12:35:56;13.23;;;4.18;;
25437;SDS011;13364;49.084;9.978;2023-01-31T12:39:13;15.52;;;4.85;;
25437;SDS011;13364;49.084;9.978;2023-01-31T12:44:56;9.07;;;3.75;;
25437;SDS011;13364;49.084;9.978;2023-01-31T12:55:07;10.55;;;4.47;;
25437;SDS011;13364;49.084;9.978;2023-01-31T13:03:47;10.73;;;4.85;;
25437;SDS011;13364;49.084;9.978;2023-01-31T13:06:20;6.25;;;3.20;;
25437;SDS011;13364;49.084;9.978;2023-01-31T13:08:56;9.85;;;4.35;;
25437;SDS011;13364;49.084;9.978;2023-01-31T13:11:38;14.93;;;4.90;;
25437;SDS011;13364;49.084;9.978;2023-01-31T13:14:14;14.45;;;4.00;;
25437;SDS011;13364;49.084;9.978;2023-01-31T13:16:53;15.65;;;4.68;;
25437;SDS011;13364;49.084;9.978;2023-01-31T13:19:31;10.45;;;4.35;;
25437;SDS011;13364;49.084;9.978;2023-01-31T13:22:10;11.65;;;3.95;;
25437;SDS011;13364;49.084;9.978;2023-01-31T13:25:12;8.43;;;3.15;;
25437;SDS011;13364;49.084;9.978;2023-01-31T13:27:52;9.68;;;3.35;;
25437;SDS011;13364;49.084;9.978;2023-01-31T13:35:59;10.13;;;3.47;;
25437;SDS011;13364;49.084;9.978;2023-01-31T13:38:33;5.78;;;3.40;;
25437;SDS011;13364;49.084;9.978;2023-01-31T13:41:07;7.22;;;4.10;;
25437;SDS011;13364;49.084;9.978;2023-01-31T13:43:55;19.93;;;5.37;;
25437;SDS011;13364;49.084;9.978;2023-01-31T13:46:26;8.88;;;3.65;;
25437;SDS011;13364;49.084;9.978;2023-01-31T13:49:25;9.20;;;3.17;;
25437;SDS011;13364;49.084;9.978;2023-01-31T13:52:08;16.00;;;3.88;;
25437;SDS011;13364;49.084;9.978;2023-01-31T13:54:41;9.00;;;4.18;;
25437;SDS011;13364;49.084;9.978;2023-01-31T13:57:19;10.75;;;3.70;;
25437;SDS011;13364;49.084;9.978;2023-01-31T13:59:52;9.07;;;3.58;;
25437;SDS011;13364;49.084;9.978;2023-01-31T14:02:21;9.02;;;4.10;;
25437;SDS011;13364;49.084;9.978;2023-01-31T14:04:49;7.05;;;3.45;;
25437;SDS011;13364;49.084;9.978;2023-01-31T14:07:19;8.10;;;3.75;;
25437;SDS011;13364;49.084;9.978;2023-01-31T14:18:48;8.30;;;3.28;;
25437;SDS011;13364;49.084;9.978;2023-01-31T14:23:55;12.02;;;3.60;;
25437;SDS011;13364;49.084;9.978;2023-01-31T14:28:56;7.85;;;3.03;;
25437;SDS011;13364;49.084;9.978;2023-01-31T14:31:24;11.07;;;3.50;;
25437;SDS011;13364;49.084;9.978;2023-01-31T14:33:52;5.85;;;3.30;;
25437;SDS011;13364;49.084;9.978;2023-01-31T14:44:19;6.20;;;3.38;;
25437;SDS011;13364;49.084;9.978;2023-01-31T14:49:57;8.88;;;3.47;;
25437;SDS011;13364;49.084;9.978;2023-01-31T14:58:01;6.72;;;3.38;;
25437;SDS011;13364;49.084;9.978;2023-01-31T15:00:31;9.57;;;3.58;;
25437;SDS011;13364;49.084;9.978;2023-01-31T15:03:12;5.28;;;3.42;;
25437;SDS011;13364;49.084;9.978;2023-01-31T15:05:51;8.93;;;3.20;;
25437;SDS011;13364;49.084;9.978;2023-01-31T15:08:42;6.43;;;2.33;;
25437;SDS011;13364;49.084;9.978;2023-01-31T15:14:27;7.20;;;2.85;;
25437;SDS011;13364;49.084;9.978;2023-01-31T15:17:02;9.82;;;3.40;;
25437;SDS011;13364;49.084;9.978;2023-01-31T15:19:34;4.90;;;2.80;;
25437;SDS011;13364;49.084;9.978;2023-01-31T15:22:10;11.77;;;3.38;;
25437;SDS011;13364;49.084;9.978;2023-01-31T15:24:40;6.85;;;2.08;;
25437;SDS011;13364;49.084;9.978;2023-01-31T15:30:36;8.65;;;2.80;;
25437;SDS011;13364;49.084;9.978;2023-01-31T15:33:25;6.30;;;3.42;;
25437;SDS011;13364;49.084;9.978;2023-01-31T15:35:59;8.63;;;3.08;;
25437;SDS011;13364;49.084;9.978;2023-01-31T15:41:37;11.75;;;3.50;;
25437;SDS011;13364;49.084;9.978;2023-01-31T15:44:10;5.47;;;2.80;;
25437;SDS011;13364;49.084;9.978;2023-01-31T15:46:47;7.28;;;2.78;;
25437;SDS011;13364;49.084;9.978;2023-01-31T15:49:28;9.10;;;3.50;;
25437;SDS011;13364;49.084;9.978;2023-01-31T15:52:13;5.05;;;3.38;;
25437;SDS011;13364;49.084;9.978;2023-01-31T15:54:51;6.90;;;3.45;;
25437;SDS011;13364;49.084;9.978;2023-01-31T15:57:24;6.68;;;3.10;;
25437;SDS011;13364;49.084;9.978;2023-01-31T16:03:19;9.40;;;3.47;;
25437;SDS011;13364;49.084;9.978;2023-01-31T16:05:51;6.00;;;3.45;;
25437;SDS011;13364;49.084;9.978;2023-01-31T16:08:21;7.75;;;3.88;;
25437;SDS011;13364;49.084;9.978;2023-01-31T16:11:02;8.60;;;3.50;;
25437;SDS011;13364;49.084;9.978;2023-01-31T16:13:33;8.85;;;3.72;;
25437;SDS011;13364;49.084;9.978;2023-01-31T16:16:03;5.18;;;2.95;;
25437;SDS011;13364;49.084;9.978;2023-01-31T16:18:32;10.52;;;3.85;;
25437;SDS011;13364;49.084;9.978;2023-01-31T16:21:13;8.93;;;4.00;;
25437;SDS011;13364;49.084;9.978;2023-01-31T16:23:44;9.00;;;4.28;;
25437;SDS011;13364;49.084;9.978;2023-01-31T16:26:13;9.95;;;3.80;;
25437;SDS011;13364;49.084;9.978;2023-01-31T16:28:51;7.15;;;2.90;;
25437;SDS011;13364;49.084;9.978;2023-01-31T16:31:26;3.13;;;2.45;;
25437;SDS011;13364;49.084;9.978;2023-01-31T16:34:01;10.85;;;3.40;;
25437;SDS011;13364;49.084;9.978;2023-01-31T16:36:32;8.43;;;2.92;;
25437;SDS011;13364;49.084;9.978;2023-01-31T16:39:26;10.93;;;4.10;;
25437;SDS011;13364;49.084;9.978;2023-01-31T16:42:05;8.43;;;3.58;;
25437;SDS011;13364;49.084;9.978;2023-01-31T16:47:53;12.73;;;4.47;;
25437;SDS011;13364;49.084;9.978;2023-01-31T16:50:23;10.82;;;4.35;;
25437;SDS011;13364;49.084;9.978;2023-01-31T16:59:10;8.90;;;4.22;;
25437;SDS011;13364;49.084;9.978;2023-01-31T17:04:52;11.02;;;4.50;;
25437;SDS011;13364;49.084;9.978;2023-01-31T17:07:34;15.55;;;5.47;;
25437;SDS011;13364;49.084;9.978;2023-01-31T17:10:03;8.30;;;5.03;;
25437;SDS011;13364;49.084;9.978;2023-01-31T17:12:36;13.00;;;4.68;;
25437;SDS011;13364;49.084;9.978;2023-01-31T17:15:18;8.98;;;4.13;;
25437;SDS011;13364;49.084;9.978;2023-01-31T17:17:46;10.52;;;4.90;;
25437;SDS011;13364;49.084;9.978;2023-01-31T17:20:14;8.70;;;4.03;;
25437;SDS011;13364;49.084;9.978;2023-01-31T17:22:42;8.93;;;4.85;;
25437;SDS011;13364;49.084;9.978;2023-01-31T17:25:23;9.77;;;4.70;;
25437;SDS011;13364;49.084;9.978;2023-01-31T17:27:52;8.82;;;5.03;;
25437;SDS011;13364;49.084;9.978;2023-01-31T17:30:20;9.73;;;5.18;;
25437;SDS011;13364;49.084;9.978;2023-01-31T17:32:50;11.45;;;5.82;;
25437;SDS011;13364;49.084;9.978;2023-01-31T17:35:18;16.02;;;5.93;;
25437;SDS011;13364;49.084;9.978;2023-01-31T17:37:49;10.07;;;5.25;;
25437;SDS011;13364;49.084;9.978;2023-01-31T17:40:16;12.60;;;6.13;;
25437;SDS011;13364;49.084;9.978;2023-01-31T17:42:43;13.43;;;6.05;;
25437;SDS011;13364;49.084;9.978;2023-01-31T17:45:11;12.93;;;5.45;;
25437;SDS011;13364;49.084;9.978;2023-01-31T17:50:08;14.30;;;6.30;;
25437;SDS011;13364;49.084;9.978;2023-01-31T17:52:41;10.77;;;4.40;;
25437;SDS011;13364;49.084;9.978;2023-01-31T17:55:08;11.60;;;6.38;;
25437;SDS011;13364;49.084;9.978;2023-01-31T17:57:36;10.68;;;6.00;;
25437;SDS011;13364;49.084;9.978;2023-01-31T18:00:04;14.32;;;7.07;;
25437;SDS011;13364;49.084;9.978;2023-01-31T18:02:33;11.60;;;6.43;;
25437;SDS011;13364;49.084;9.978;2023-01-31T18:05:00;14.82;;;7.75;;
25437;SDS011;13364;49.084;9.978;2023-01-31T18:07:27;13.82;;;6.18;;
25437;SDS011;13364;49.084;9.978;2023-01-31T18:09:54;13.93;;;5.18;;
25437;SDS011;13364;49.084;9.978;2023-01-31T18:12:21;15.23;;;8.55;;